sensor_id;sensor_type;location;lat;lon;timestamp;temperature;humidity
22674;DHT22;11504;43.334;21.918;2023-04-24T00:00:19;15.8;100.0
22674;DHT22;11504;43.334;21.918;2023-04-24T00:04:56;15.8;100.0
22674;DHT22;11504;43.334;21.918;2023-04-24T00:09:33;15.8;100.0
22674;DHT22;11504;43.334;21.918;2023-04-24T00:14:10;15.7;100.0
22674;DHT22;11504;43.334;21.918;2023-04-24T00:18:47;15.7;100.0
22674;DHT22;11504;43.334;21.918;2023-04-24T00:23:24;15.7;100.0
22674;DHT22;11504;43.334;21.918;2023-04-24T00:28:01;15.7;100.0
22674;DHT22;11504;43.334;21.918;2023-04-24T00:32:38;15.7;100.0
22674;DHT22;11504;43.334;21.918;2023-04-24T00:37:15;15.7;100.0
22674;DHT22;11504;43.334;21.918;2023-04-24T00:41:53;15.6;100.0
22674;DHT22;11504;43.334;21.918;2023-04-24T00:46:32;15.6;100.0
22674;DHT22;11504;43.334;21.918;2023-04-24T00:51:10;15.5;100.0
22674;DHT22;11504;43.334;21.918;2023-04-24T00:55:48;15.5;100.0
22674;DHT22;11504;43.334;21.918;2023-04-24T01:00:28;15.4;100.0
22674;DHT22;11504;43.334;21.918;2023-04-24T01:05:08;15.4;100.0
22674;DHT22;11504;43.334;21.918;2023-04-24T01:09:48;15.4;100.0
22674;DHT22;11504;43.334;21.918;2023-04-24T01:14:26;15.4;100.0
22674;DHT22;11504;43.334;21.918;2023-04-24T01:19:02;15.4;100.0
22674;DHT22;11504;43.334;21.918;2023-04-24T01:23:39;15.4;100.0
22674;DHT22;11504;43.334;21.918;2023-04-24T01:28:18;15.4;100.0
22674;DHT22;11504;43.334;21.918;2023-04-24T01:32:57;15.4;100.0
22674;DHT22;11504;43.334;21.918;2023-04-24T01:37:35;15.4;100.0
22674;DHT22;11504;43.334;21.918;2023-04-24T01:42:14;15.3;100.0
22674;DHT22;11504;43.334;21.918;2023-04-24T01:46:52;15.3;100.0
22674;DHT22;11504;43.334;21.918;2023-04-24T01:51:29;15.2;100.0
22674;DHT22;11504;43.334;21.918;2023-04-24T01:56:07;15.2;100.0
22674;DHT22;11504;43.334;21.918;2023-04-24T02:00:44;15.2;100.0
22674;DHT22;11504;43.334;21.918;2023-04-24T02:05:21;15.2;100.0
22674;DHT22;11504;43.334;21.918;2023-04-24T02:09:58;15.2;100.0
22674;DHT22;11504;43.334;21.918;2023-04-24T02:14:35;15.2;100.0
22674;DHT22;11504;43.334;21.918;2023-04-24T02:19:11;15.2;100.0
22674;DHT22;11504;43.334;21.918;2023-04-24T02:23:47;15.2;100.0
22674;DHT22;11504;43.334;21.918;2023-04-24T02:28:24;15.2;100.0
22674;DHT22;11504;43.334;21.918;2023-04-24T02:33:00;15.1;100.0
22674;DHT22;11504;43.334;21.918;2023-04-24T02:37:36;15.1;100.0
22674;DHT22;11504;43.334;21.918;2023-04-24T02:42:13;15.0;100.0
22674;DHT22;11504;43.334;21.918;2023-04-24T02:46:49;15.0;100.0
22674;DHT22;11504;43.334;21.918;2023-04-24T02:51:26;15.0;100.0
22674;DHT22;11504;43.334;21.918;2023-04-24T02:56:03;15.0;100.0
22674;DHT22;11504;43.334;21.918;2023-04-24T03:00:39;15.0;100.0
22674;DHT22;11504;43.334;21.918;2023-04-24T03:05:16;15.0;100.0
22674;DHT22;11504;43.334;21.918;2023-04-24T03:09:53;15.0;100.0
22674;DHT22;11504;43.334;21.918;2023-04-24T03:14:30;15.0;100.0
22674;DHT22;11504;43.334;21.918;2023-04-24T03:19:08;15.0;100.0
22674;DHT22;11504;43.334;21.918;2023-04-24T03:23:45;15.0;100.0
22674;DHT22;11504;43.334;21.918;2023-04-24T03:28:22;15.0;100.0
22674;DHT22;11504;43.334;21.918;2023-04-24T03:33:00;15.0;100.0
22674;DHT22;11504;43.334;21.918;2023-04-24T03:37:37;15.0;100.0
22674;DHT22;11504;43.334;21.918;2023-04-24T03:42:14;14.8;100.0
22674;DHT22;11504;43.334;21.918;2023-04-24T03:46:51;14.8;100.0
22674;DHT22;11504;43.334;21.918;2023-04-24T03:51:28;14.7;100.0
22674;DHT22;11504;43.334;21.918;2023-04-24T03:56:05;14.7;100.0
22674;DHT22;11504;43.334;21.918;2023-04-24T04:00:42;14.8;100.0
22674;DHT22;11504;43.334;21.918;2023-04-24T04:05:18;14.8;100.0
22674;DHT22;11504;43.334;21.918;2023-04-24T04:09:55;14.8;100.0
22674;DHT22;11504;43.334;21.918;2023-04-24T04:14:31;14.8;100.0
22674;DHT22;11504;43.334;21.918;2023-04-24T04:19:08;14.8;100.0
22674;DHT22;11504;43.334;21.918;2023-04-24T04:23:44;14.8;100.0
22674;DHT22;11504;43.334;21.918;2023-04-24T04:28:21;14.8;100.0
22674;DHT22;11504;43.334;21.918;2023-04-24T04:32:58;14.9;100.0
22674;DHT22;11504;43.334;21.918;2023-04-24T04:37:35;14.9;100.0
22674;DHT22;11504;43.334;21.918;2023-04-24T04:42:12;15.0;100.0
22674;DHT22;11504;43.334;21.918;2023-04-24T04:46:49;15.0;100.0
22674;DHT22;11504;43.334;21.918;2023-04-24T04:51:26;15.0;100.0
22674;DHT22;11504;43.334;21.918;2023-04-24T04:56:03;15.0;100.0
22674;DHT22;11504;43.334;21.918;2023-04-24T05:00:40;15.6;100.0
22674;DHT22;11504;43.334;21.918;2023-04-24T05:05:17;15.6;100.0
22674;DHT22;11504;43.334;21.918;2023-04-24T05:09:54;15.6;100.0
22674;DHT22;11504;43.334;21.918;2023-04-24T05:14:30;16.3;100.0
22674;DHT22;11504;43.334;21.918;2023-04-24T05:19:06;16.3;100.0
22674;DHT22;11504;43.334;21.918;2023-04-24T05:23:42;17.6;100.0
22674;DHT22;11504;43.334;21.918;2023-04-24T05:28:19;17.6;100.0
22674;DHT22;11504;43.334;21.918;2023-04-24T05:32:55;19.0;100.0
22674;DHT22;11504;43.334;21.918;2023-04-24T05:37:32;19.0;100.0
22674;DHT22;11504;43.334;21.918;2023-04-24T05:42:08;18.1;100.0
22674;DHT22;11504;43.334;21.918;2023-04-24T05:46:45;18.1;100.0
22674;DHT22;11504;43.334;21.918;2023-04-24T05:51:23;17.2;100.0
22674;DHT22;11504;43.334;21.918;2023-04-24T05:56:00;17.2;100.0
22674;DHT22;11504;43.334;21.918;2023-04-24T06:00:38;17.2;100.0
22674;DHT22;11504;43.334;21.918;2023-04-24T06:05:15;17.2;100.0
22674;DHT22;11504;43.334;21.918;2023-04-24T06:09:53;17.2;100.0
22674;DHT22;11504;43.334;21.918;2023-04-24T06:14:30;17.1;100.0
22674;DHT22;11504;43.334;21.918;2023-04-24T06:19:07;17.1;100.0
22674;DHT22;11504;43.334;21.918;2023-04-24T06:23:44;19.0;100.0
22674;DHT22;11504;43.334;21.918;2023-04-24T06:28:21;19.0;100.0
22674;DHT22;11504;43.334;21.918;2023-04-24T06:32:57;20.9;100.0
22674;DHT22;11504;43.334;21.918;2023-04-24T06:37:34;20.9;100.0
22674;DHT22;11504;43.334;21.918;2023-04-24T06:42:11;20.3;100.0
22674;DHT22;11504;43.334;21.918;2023-04-24T06:46:47;20.3;100.0
22674;DHT22;11504;43.334;21.918;2023-04-24T06:51:26;19.7;100.0
22674;DHT22;11504;43.334;21.918;2023-04-24T06:56:04;19.7;100.0
22674;DHT22;11504;43.334;21.918;2023-04-24T07:00:40;19.7;100.0
22674;DHT22;11504;43.334;21.918;2023-04-24T07:05:17;22.0;100.0
22674;DHT22;11504;43.334;21.918;2023-04-24T07:09:53;22.0;100.0
22674;DHT22;11504;43.334;21.918;2023-04-24T07:14:30;24.3;100.0
22674;DHT22;11504;43.334;21.918;2023-04-24T07:19:07;24.3;100.0
22674;DHT22;11504;43.334;21.918;2023-04-24T07:23:43;25.8;100.0
22674;DHT22;11504;43.334;21.918;2023-04-24T07:28:20;25.8;100.0
22674;DHT22;11504;43.334;21.918;2023-04-24T07:32:56;27.3;100.0
22674;DHT22;11504;43.334;21.918;2023-04-24T07:37:33;27.3;100.0
22674;DHT22;11504;43.334;21.918;2023-04-24T07:42:10;27.6;100.0
22674;DHT22;11504;43.334;21.918;2023-04-24T07:46:47;27.6;100.0
22674;DHT22;11504;43.334;21.918;2023-04-24T07:51:23;27.8;100.0
22674;DHT22;11504;43.334;21.918;2023-04-24T07:55:59;27.8;100.0
22674;DHT22;11504;43.334;21.918;2023-04-24T08:00:36;27.8;100.0
22674;DHT22;11504;43.334;21.918;2023-04-24T08:05:12;28.0;100.0
22674;DHT22;11504;43.334;21.918;2023-04-24T08:09:49;28.0;100.0
22674;DHT22;11504;43.334;21.918;2023-04-24T08:14:26;28.1;100.0
22674;DHT22;11504;43.334;21.918;2023-04-24T08:19:02;28.1;100.0
22674;DHT22;11504;43.334;21.918;2023-04-24T08:23:41;27.6;100.0
22674;DHT22;11504;43.334;21.918;2023-04-24T08:28:18;27.6;100.0
22674;DHT22;11504;43.334;21.918;2023-04-24T08:32:55;27.0;100.0
22674;DHT22;11504;43.334;21.918;2023-04-24T08:37:32;27.0;100.0
22674;DHT22;11504;43.334;21.918;2023-04-24T08:42:13;27.2;100.0
22674;DHT22;11504;43.334;21.918;2023-04-24T08:46:55;27.2;100.0
22674;DHT22;11504;43.334;21.918;2023-04-24T08:51:33;27.4;100.0
22674;DHT22;11504;43.334;21.918;2023-04-24T08:56:15;27.4;100.0
22674;DHT22;11504;43.334;21.918;2023-04-24T09:00:56;27.3;100.0
22674;DHT22;11504;43.334;21.918;2023-04-24T09:05:34;27.3;100.0
22674;DHT22;11504;43.334;21.918;2023-04-24T09:10:13;27.3;100.0
22674;DHT22;11504;43.334;21.918;2023-04-24T09:14:52;27.2;100.0
22674;DHT22;11504;43.334;21.918;2023-04-24T09:19:32;27.2;100.0
22674;DHT22;11504;43.334;21.918;2023-04-24T09:24:18;27.0;100.0
22674;DHT22;11504;43.334;21.918;2023-04-24T09:28:59;27.0;100.0
22674;DHT22;11504;43.334;21.918;2023-04-24T09:33:37;26.8;100.0
22674;DHT22;11504;43.334;21.918;2023-04-24T09:38:14;26.8;100.0
22674;DHT22;11504;43.334;21.918;2023-04-24T09:42:53;27.2;100.0
22674;DHT22;11504;43.334;21.918;2023-04-24T09:47:36;27.2;100.0
22674;DHT22;11504;43.334;21.918;2023-04-24T09:52:16;27.6;100.0
22674;DHT22;11504;43.334;21.918;2023-04-24T09:56:54;27.6;100.0
22674;DHT22;11504;43.334;21.918;2023-04-24T10:01:32;27.4;100.0
22674;DHT22;11504;43.334;21.918;2023-04-24T10:06:13;27.4;100.0
22674;DHT22;11504;43.334;21.918;2023-04-24T10:10:50;27.1;100.0
22674;DHT22;11504;43.334;21.918;2023-04-24T10:15:28;27.1;100.0
22674;DHT22;11504;43.334;21.918;2023-04-24T10:20:07;27.1;100.0
22674;DHT22;11504;43.334;21.918;2023-04-24T10:24:49;26.8;100.0
22674;DHT22;11504;43.334;21.918;2023-04-24T10:29:31;26.8;100.0
22674;DHT22;11504;43.334;21.918;2023-04-24T10:34:11;26.6;100.0
22674;DHT22;11504;43.334;21.918;2023-04-24T10:38:49;26.6;100.0
22674;DHT22;11504;43.334;21.918;2023-04-24T10:43:28;26.4;100.0
22674;DHT22;11504;43.334;21.918;2023-04-24T10:48:08;26.4;100.0
22674;DHT22;11504;43.334;21.918;2023-04-24T10:52:45;26.1;100.0
22674;DHT22;11504;43.334;21.918;2023-04-24T10:57:28;26.1;100.0
22674;DHT22;11504;43.334;21.918;2023-04-24T11:02:08;25.9;100.0
22674;DHT22;11504;43.334;21.918;2023-04-24T11:06:45;25.9;100.0
22674;DHT22;11504;43.334;21.918;2023-04-24T11:11:29;25.7;100.0
22674;DHT22;11504;43.334;21.918;2023-04-24T11:16:21;25.7;100.0
22674;DHT22;11504;43.334;21.918;2023-04-24T11:21:11;25.6;100.0
22674;DHT22;11504;43.334;21.918;2023-04-24T11:26:10;25.6;100.0
22674;DHT22;11504;43.334;21.918;2023-04-24T11:30:57;25.6;100.0
22674;DHT22;11504;43.334;21.918;2023-04-24T11:36:11;25.6;100.0
22674;DHT22;11504;43.334;21.918;2023-04-24T11:40:49;25.6;100.0
22674;DHT22;11504;43.334;21.918;2023-04-24T11:45:31;25.2;100.0
22674;DHT22;11504;43.334;21.918;2023-04-24T11:50:12;25.2;100.0
22674;DHT22;11504;43.334;21.918;2023-04-24T11:54:55;24.9;100.0
22674;DHT22;11504;43.334;21.918;2023-04-24T11:59:36;24.9;100.0
22674;DHT22;11504;43.334;21.918;2023-04-24T12:04:15;24.8;100.0
22674;DHT22;11504;43.334;21.918;2023-04-24T12:08:54;24.8;100.0
22674;DHT22;11504;43.334;21.918;2023-04-24T12:13:31;24.7;100.0
22674;DHT22;11504;43.334;21.918;2023-04-24T12:18:12;24.7;100.0
22674;DHT22;11504;43.334;21.918;2023-04-24T12:22:52;24.6;100.0
22674;DHT22;11504;43.334;21.918;2023-04-24T12:27:34;24.6;100.0
22674;DHT22;11504;43.334;21.918;2023-04-24T12:32:16;24.6;100.0
22674;DHT22;11504;43.334;21.918;2023-04-24T12:36:53;24.6;100.0
22674;DHT22;11504;43.334;21.918;2023-04-24T12:41:30;24.6;100.0
22674;DHT22;11504;43.334;21.918;2023-04-24T12:46:07;24.6;100.0
22674;DHT22;11504;43.334;21.918;2023-04-24T12:50:44;24.6;100.0
22674;DHT22;11504;43.334;21.918;2023-04-24T12:55:21;24.6;100.0
22674;DHT22;11504;43.334;21.918;2023-04-24T12:59:58;24.6;100.0
22674;DHT22;11504;43.334;21.918;2023-04-24T13:04:35;24.2;100.0
22674;DHT22;11504;43.334;21.918;2023-04-24T13:09:12;24.2;100.0
22674;DHT22;11504;43.334;21.918;2023-04-24T13:13:49;23.7;100.0
22674;DHT22;11504;43.334;21.918;2023-04-24T13:18:25;23.7;100.0
22674;DHT22;11504;43.334;21.918;2023-04-24T13:23:02;23.1;100.0
22674;DHT22;11504;43.334;21.918;2023-04-24T13:27:39;23.1;100.0
22674;DHT22;11504;43.334;21.918;2023-04-24T13:32:16;22.5;100.0
22674;DHT22;11504;43.334;21.918;2023-04-24T13:36:56;22.5;100.0
22674;DHT22;11504;43.334;21.918;2023-04-24T13:41:34;21.4;100.0
22674;DHT22;11504;43.334;21.918;2023-04-24T13:46:11;21.4;100.0
22674;DHT22;11504;43.334;21.918;2023-04-24T13:50:48;21.4;100.0
22674;DHT22;11504;43.334;21.918;2023-04-24T13:55:25;20.4;100.0
22674;DHT22;11504;43.334;21.918;2023-04-24T14:00:06;20.4;100.0
22674;DHT22;11504;43.334;21.918;2023-04-24T14:04:49;20.5;100.0
22674;DHT22;11504;43.334;21.918;2023-04-24T14:09:26;20.5;100.0
22674;DHT22;11504;43.334;21.918;2023-04-24T14:14:04;20.7;100.0
22674;DHT22;11504;43.334;21.918;2023-04-24T14:18:42;20.7;100.0
22674;DHT22;11504;43.334;21.918;2023-04-24T14:23:19;21.1;100.0
22674;DHT22;11504;43.334;21.918;2023-04-24T14:27:57;21.1;100.0
22674;DHT22;11504;43.334;21.918;2023-04-24T14:32:34;21.5;100.0
22674;DHT22;11504;43.334;21.918;2023-04-24T14:37:10;21.5;100.0
22674;DHT22;11504;43.334;21.918;2023-04-24T14:41:47;21.3;100.0
22674;DHT22;11504;43.334;21.918;2023-04-24T14:46:24;21.3;100.0
22674;DHT22;11504;43.334;21.918;2023-04-24T14:51:00;21.3;100.0
22674;DHT22;11504;43.334;21.918;2023-04-24T14:55:36;21.1;100.0
22674;DHT22;11504;43.334;21.918;2023-04-24T15:00:15;21.1;100.0
22674;DHT22;11504;43.334;21.918;2023-04-24T15:04:54;21.0;100.0
22674;DHT22;11504;43.334;21.918;2023-04-24T15:09:31;21.0;100.0
22674;DHT22;11504;43.334;21.918;2023-04-24T15:14:07;20.8;100.0
22674;DHT22;11504;43.334;21.918;2023-04-24T15:18:44;20.8;100.0
22674;DHT22;11504;43.334;21.918;2023-04-24T15:23:20;20.6;100.0
22674;DHT22;11504;43.334;21.918;2023-04-24T15:27:58;20.6;100.0
22674;DHT22;11504;43.334;21.918;2023-04-24T15:32:35;20.5;100.0
22674;DHT22;11504;43.334;21.918;2023-04-24T15:37:12;20.5;100.0
22674;DHT22;11504;43.334;21.918;2023-04-24T15:41:48;19.8;100.0
22674;DHT22;11504;43.334;21.918;2023-04-24T15:46:25;19.8;100.0
22674;DHT22;11504;43.334;21.918;2023-04-24T15:51:02;19.8;100.0
22674;DHT22;11504;43.334;21.918;2023-04-24T15:55:39;19.0;100.0
22674;DHT22;11504;43.334;21.918;2023-04-24T16:00:17;19.0;100.0
22674;DHT22;11504;43.334;21.918;2023-04-24T16:04:55;18.5;100.0
22674;DHT22;11504;43.334;21.918;2023-04-24T16:09:31;18.5;100.0
22674;DHT22;11504;43.334;21.918;2023-04-24T16:14:07;18.0;100.0
22674;DHT22;11504;43.334;21.918;2023-04-24T16:18:44;18.0;100.0
22674;DHT22;11504;43.334;21.918;2023-04-24T16:23:20;17.8;100.0
22674;DHT22;11504;43.334;21.918;2023-04-24T16:27:57;17.8;100.0
22674;DHT22;11504;43.334;21.918;2023-04-24T16:32:35;17.6;100.0
22674;DHT22;11504;43.334;21.918;2023-04-24T16:37:12;17.6;100.0
22674;DHT22;11504;43.334;21.918;2023-04-24T16:41:49;17.5;100.0
22674;DHT22;11504;43.334;21.918;2023-04-24T16:46:26;17.5;100.0
22674;DHT22;11504;43.334;21.918;2023-04-24T16:51:03;17.5;100.0
22674;DHT22;11504;43.334;21.918;2023-04-24T16:55:41;17.4;100.0
22674;DHT22;11504;43.334;21.918;2023-04-24T17:00:18;17.4;100.0
22674;DHT22;11504;43.334;21.918;2023-04-24T17:04:56;17.2;100.0
22674;DHT22;11504;43.334;21.918;2023-04-24T17:09:32;17.2;100.0
22674;DHT22;11504;43.334;21.918;2023-04-24T17:14:09;17.1;100.0
22674;DHT22;11504;43.334;21.918;2023-04-24T17:18:46;17.1;100.0
22674;DHT22;11504;43.334;21.918;2023-04-24T17:23:23;17.0;100.0
22674;DHT22;11504;43.334;21.918;2023-04-24T17:28:00;17.0;100.0
22674;DHT22;11504;43.334;21.918;2023-04-24T17:32:37;17.0;100.0
22674;DHT22;11504;43.334;21.918;2023-04-24T17:37:13;17.0;100.0
22674;DHT22;11504;43.334;21.918;2023-04-24T17:41:50;16.8;100.0
22674;DHT22;11504;43.334;21.918;2023-04-24T17:46:27;16.8;100.0
22674;DHT22;11504;43.334;21.918;2023-04-24T17:51:04;16.8;100.0
22674;DHT22;11504;43.334;21.918;2023-04-24T17:55:41;16.6;100.0
22674;DHT22;11504;43.334;21.918;2023-04-24T18:00:18;16.6;100.0
22674;DHT22;11504;43.334;21.918;2023-04-24T18:04:55;16.5;100.0
22674;DHT22;11504;43.334;21.918;2023-04-24T18:09:32;16.5;100.0
22674;DHT22;11504;43.334;21.918;2023-04-24T18:14:08;16.3;100.0
22674;DHT22;11504;43.334;21.918;2023-04-24T18:18:44;16.3;100.0
22674;DHT22;11504;43.334;21.918;2023-04-24T18:23:21;16.2;100.0
22674;DHT22;11504;43.334;21.918;2023-04-24T18:27:58;16.2;100.0
22674;DHT22;11504;43.334;21.918;2023-04-24T18:32:34;16.2;100.0
22674;DHT22;11504;43.334;21.918;2023-04-24T18:37:11;16.2;100.0
22674;DHT22;11504;43.334;21.918;2023-04-24T18:41:47;16.1;100.0
22674;DHT22;11504;43.334;21.918;2023-04-24T18:46:23;16.1;100.0
22674;DHT22;11504;43.334;21.918;2023-04-24T18:51:00;16.1;100.0
22674;DHT22;11504;43.334;21.918;2023-04-24T18:55:36;16.0;100.0
22674;DHT22;11504;43.334;21.918;2023-04-24T19:00:13;16.0;100.0
22674;DHT22;11504;43.334;21.918;2023-04-24T19:04:51;16.0;100.0
22674;DHT22;11504;43.334;21.918;2023-04-24T19:09:28;16.0;100.0
22674;DHT22;11504;43.334;21.918;2023-04-24T19:14:04;16.0;100.0
22674;DHT22;11504;43.334;21.918;2023-04-24T19:18:42;16.0;100.0
22674;DHT22;11504;43.334;21.918;2023-04-24T19:23:18;16.0;100.0
22674;DHT22;11504;43.334;21.918;2023-04-24T19:27:56;16.0;100.0
22674;DHT22;11504;43.334;21.918;2023-04-24T19:32:32;16.0;100.0
22674;DHT22;11504;43.334;21.918;2023-04-24T19:37:10;16.0;100.0
22674;DHT22;11504;43.334;21.918;2023-04-24T19:41:47;16.0;100.0
22674;DHT22;11504;43.334;21.918;2023-04-24T19:46:24;16.0;100.0
22674;DHT22;11504;43.334;21.918;2023-04-24T19:51:02;16.0;100.0
22674;DHT22;11504;43.334;21.918;2023-04-24T19:55:39;15.9;100.0
22674;DHT22;11504;43.334;21.918;2023-04-24T20:00:16;15.9;100.0
22674;DHT22;11504;43.334;21.918;2023-04-24T20:04:53;15.8;100.0
22674;DHT22;11504;43.334;21.918;2023-04-24T20:09:29;15.8;100.0
22674;DHT22;11504;43.334;21.918;2023-04-24T20:14:06;15.6;100.0
22674;DHT22;11504;43.334;21.918;2023-04-24T20:18:42;15.6;100.0
22674;DHT22;11504;43.334;21.918;2023-04-24T20:23:19;15.6;100.0
22674;DHT22;11504;43.334;21.918;2023-04-24T20:27:55;15.6;100.0
22674;DHT22;11504;43.334;21.918;2023-04-24T20:32:32;15.6;100.0
22674;DHT22;11504;43.334;21.918;2023-04-24T20:37:08;15.6;100.0
22674;DHT22;11504;43.334;21.918;2023-04-24T20:41:45;15.6;100.0
22674;DHT22;11504;43.334;21.918;2023-04-24T20:46:21;15.6;100.0
22674;DHT22;11504;43.334;21.918;2023-04-24T20:50:58;15.6;100.0
22674;DHT22;11504;43.334;21.918;2023-04-24T20:55:35;15.6;100.0
22674;DHT22;11504;43.334;21.918;2023-04-24T21:00:14;15.6;100.0
22674;DHT22;11504;43.334;21.918;2023-04-24T21:04:51;15.6;100.0
22674;DHT22;11504;43.334;21.918;2023-04-24T21:09:28;15.6;100.0
22674;DHT22;11504;43.334;21.918;2023-04-24T21:14:05;15.6;100.0
22674;DHT22;11504;43.334;21.918;2023-04-24T21:18:41;15.6;100.0
22674;DHT22;11504;43.334;21.918;2023-04-24T21:23:18;15.8;100.0
22674;DHT22;11504;43.334;21.918;2023-04-24T21:27:55;15.8;100.0
22674;DHT22;11504;43.334;21.918;2023-04-24T21:32:34;15.9;100.0
22674;DHT22;11504;43.334;21.918;2023-04-24T21:37:11;15.9;100.0
22674;DHT22;11504;43.334;21.918;2023-04-24T21:41:47;15.9;100.0
22674;DHT22;11504;43.334;21.918;2023-04-24T21:46:25;15.9;100.0
22674;DHT22;11504;43.334;21.918;2023-04-24T21:51:02;15.9;100.0
22674;DHT22;11504;43.334;21.918;2023-04-24T21:55:39;15.9;100.0
22674;DHT22;11504;43.334;21.918;2023-04-24T22:00:17;15.9;100.0
22674;DHT22;11504;43.334;21.918;2023-04-24T22:04:55;15.8;100.0
22674;DHT22;11504;43.334;21.918;2023-04-24T22:09:32;15.8;100.0
22674;DHT22;11504;43.334;21.918;2023-04-24T22:14:09;15.6;100.0
22674;DHT22;11504;43.334;21.918;2023-04-24T22:18:47;15.6;100.0
22674;DHT22;11504;43.334;21.918;2023-04-24T22:23:25;15.6;100.0
22674;DHT22;11504;43.334;21.918;2023-04-24T22:28:02;15.6;100.0
22674;DHT22;11504;43.334;21.918;2023-04-24T22:32:39;15.6;100.0
22674;DHT22;11504;43.334;21.918;2023-04-24T22:37:16;15.6;100.0
22674;DHT22;11504;43.334;21.918;2023-04-24T22:41:53;15.6;100.0
22674;DHT22;11504;43.334;21.918;2023-04-24T22:46:30;15.6;100.0
22674;DHT22;11504;43.334;21.918;2023-04-24T22:51:06;15.6;100.0
22674;DHT22;11504;43.334;21.918;2023-04-24T22:55:43;15.7;100.0
22674;DHT22;11504;43.334;21.918;2023-04-24T23:00:20;15.7;100.0
22674;DHT22;11504;43.334;21.918;2023-04-24T23:04:57;15.7;100.0
22674;DHT22;11504;43.334;21.918;2023-04-24T23:09:33;15.7;100.0
22674;DHT22;11504;43.334;21.918;2023-04-24T23:14:10;15.7;100.0
22674;DHT22;11504;43.334;21.918;2023-04-24T23:18:46;15.7;100.0
22674;DHT22;11504;43.334;21.918;2023-04-24T23:23:23;15.6;100.0
22674;DHT22;11504;43.334;21.918;2023-04-24T23:28:00;15.6;100.0
22674;DHT22;11504;43.334;21.918;2023-04-24T23:32:36;15.5;100.0
22674;DHT22;11504;43.334;21.918;2023-04-24T23:37:13;15.5;100.0
22674;DHT22;11504;43.334;21.918;2023-04-24T23:41:50;15.6;100.0
22674;DHT22;11504;43.334;21.918;2023-04-24T23:46:26;15.6;100.0
22674;DHT22;11504;43.334;21.918;2023-04-24T23:51:03;15.6;100.0
22674;DHT22;11504;43.334;21.918;2023-04-24T23:55:41;15.6;100.0
